Time;durP1;ratioP1;P1;durP2;ratioP2;P2;SDS_P1;SDS_P2;PMS_P1;PMS_P2;Temp;Humidity;BMP_temperature;BMP_pressure;BME280_temperature;BME280_humidity;BME280_pressure;Samples;Min_cycle;Max_cycle;Signal;HPM_P1;HPM_P2
2023/02/23 00:02:05;;;;;;;14.77;11.13;;;;;;;8.83;100.00;100800.50;6018135;23;20103;-72
2023/02/23 00:04:35;;;;;;;16.40;11.50;;;;;;;8.49;100.00;100747.00;6043105;23;20014;-72
2023/02/23 00:07:02;;;;;;;18.27;12.35;;;;;;;8.71;100.00;100780.94;6043996;23;20066;-71
2023/02/23 00:09:34;;;;;;;17.60;11.50;;;;;;;8.83;100.00;100808.34;6043383;23;20026;-72
2023/02/23 00:12:06;;;;;;;17.13;11.85;;;;;;;8.73;100.00;100788.72;6044006;23;20086;-71
2023/02/23 00:14:34;;;;;;;17.20;12.02;;;;;;;7.69;100.00;100610.94;6043439;23;20014;-72
2023/02/23 00:17:00;;;;;;;18.02;13.18;;;;;;;8.45;100.00;100755.91;6045844;23;20103;-71
2023/02/23 00:19:27;;;;;;;21.08;13.95;;;;;;;8.58;100.00;100766.69;6044861;23;20022;-71
2023/02/23 00:21:53;;;;;;;17.30;12.32;;;;;;;8.78;100.00;100798.09;6021381;23;20035;-71
2023/02/23 00:24:22;;;;;;;17.45;12.90;;;;;;;8.77;100.00;100830.38;6051071;23;20088;-71
2023/02/23 00:26:50;;;;;;;15.20;12.00;;;;;;;7.96;100.00;100662.06;6055280;23;20162;-71
2023/02/23 00:29:22;;;;;;;24.13;12.70;;;;;;;8.79;100.00;100796.31;5999517;23;20053;-71
2023/02/23 00:31:49;;;;;;;12.77;10.85;;;;;;;8.79;100.00;100797.16;6024330;23;20034;-71
2023/02/23 00:34:20;;;;;;;16.15;12.43;;;;;;;8.41;100.00;100732.53;6044850;23;20041;-70
2023/02/23 00:36:53;;;;;;;20.52;12.10;;;;;;;8.83;100.00;100789.19;6023690;23;20027;-71
2023/02/23 00:39:24;;;;;;;18.80;12.60;;;;;;;8.84;100.00;100794.34;6027197;23;20040;-71
2023/02/23 00:41:51;;;;;;;14.60;12.25;;;;;;;8.87;100.00;100791.59;6052939;23;20398;-71
2023/02/23 00:44:20;;;;;;;15.40;11.50;;;;;;;8.82;100.00;100804.03;6019178;23;20111;-71
2023/02/23 00:46:50;;;;;;;13.90;12.45;;;;;;;8.39;100.00;100714.28;6046474;23;20258;-72
2023/02/23 00:49:18;;;;;;;19.15;12.70;;;;;;;8.83;100.00;100797.03;6047420;23;20088;-71
2023/02/23 00:51:46;;;;;;;21.92;11.80;;;;;;;8.81;100.00;100793.63;6049872;23;20010;-72
2023/02/23 00:54:14;;;;;;;13.32;11.95;;;;;;;8.70;100.00;100779.25;6045409;23;20038;-72
2023/02/23 00:56:41;;;;;;;23.20;13.73;;;;;;;8.37;100.00;100732.66;6051500;23;20084;-70
2023/02/23 00:59:08;;;;;;;18.15;12.75;;;;;;;8.75;100.00;100790.34;6024129;23;20060;-70
2023/02/23 01:01:36;;;;;;;16.63;12.45;;;;;;;8.45;100.00;100747.22;6048842;23;20028;-70
2023/02/23 01:04:04;;;;;;;14.88;12.00;;;;;;;8.80;100.00;100782.31;6045937;23;20048;-70
2023/02/23 01:06:31;;;;;;;15.15;10.80;;;;;;;8.81;100.00;100804.94;6049814;23;20422;-70
2023/02/23 01:08:57;;;;;;;17.92;11.20;;;;;;;8.49;100.00;100738.31;6046565;23;20440;-71
2023/02/23 01:11:27;;;;;;;14.43;11.88;;;;;;;8.61;100.00;100765.72;6047865;23;20551;-70
2023/02/23 01:13:56;;;;;;;22.73;13.40;;;;;;;8.68;100.00;100768.00;6039660;23;20027;-70
2023/02/23 01:16:26;;;;;;;15.50;13.30;;;;;;;8.67;100.00;100766.28;6047135;23;20105;-70
2023/02/23 01:18:58;;;;;;;19.00;11.68;;;;;;;8.54;100.00;100741.59;6019468;23;20212;-70
2023/02/23 01:21:31;;;;;;;20.48;12.35;;;;;;;8.29;100.00;100699.91;6046971;23;20503;-71
2023/02/23 01:23:58;;;;;;;17.90;13.40;;;;;;;8.65;100.00;100751.59;6044916;23;20034;-70
2023/02/23 01:26:27;;;;;;;15.25;11.90;;;;;;;8.49;100.00;100718.22;6022748;23;20057;-70
2023/02/23 01:28:59;;;;;;;17.55;11.30;;;;;;;8.98;100.00;100791.13;6043349;23;20071;-70
2023/02/23 01:31:26;;;;;;;;;;;;;;;9.00;100.00;100781.44;6043800;23;20038;-70
2023/02/23 01:33:58;;;;;;;16.25;12.98;;;;;;;8.93;100.00;100766.91;6022250;23;19922;-71
2023/02/23 01:36:27;;;;;;;23.73;15.60;;;;;;;8.97;100.00;100771.94;6044237;23;20033;-70
2023/02/23 01:38:55;;;;;;;29.63;12.88;;;;;;;8.67;100.00;100720.97;6049869;23;20002;-70
2023/02/23 01:41:23;;;;;;;20.05;11.80;;;;;;;9.15;100.00;100793.00;6047995;23;20030;-71
2023/02/23 01:44:04;;;;;;;15.05;11.65;;;;;;;9.15;100.00;100785.97;6018007;23;20042;-70
2023/02/23 01:46:32;;;;;;;25.35;13.85;;;;;;;7.74;100.00;100547.16;6019661;23;20041;-71
2023/02/23 01:48:59;;;;;;;18.23;13.55;;;;;;;9.14;100.00;100786.91;6019999;23;20011;-70
2023/02/23 01:51:31;;;;;;;18.13;12.48;;;;;;;9.12;100.00;100786.13;6041971;23;20026;-70
2023/02/23 01:54:08;;;;;;;24.40;14.05;;;;;;;9.10;100.00;100787.97;6020208;23;20002;-70
2023/02/23 01:56:43;;;;;;;18.52;11.73;;;;;;;9.10;100.00;100803.69;6025429;23;20109;-70
2023/02/23 01:59:14;;;;;;;19.73;12.68;;;;;;;8.01;100.00;100601.75;6045908;23;20018;-71
2023/02/23 02:01:41;;;;;;;11.88;10.68;;;;;;;8.23;100.00;100643.50;6045370;23;20375;-70
2023/02/23 02:04:15;;;;;;;22.10;12.85;;;;;;;8.68;100.00;100725.28;6044459;23;20334;-71
2023/02/23 02:06:45;;;;;;;14.10;11.23;;;;;;;9.05;100.00;100782.06;6045185;23;20022;-70
2023/02/23 02:09:16;;;;;;;17.17;12.75;;;;;;;9.03;100.00;100780.47;6043693;23;20269;-69
2023/02/23 02:11:45;;;;;;;20.05;12.27;;;;;;;9.01;100.00;100782.28;6000531;23;20031;-70
2023/02/23 02:14:13;;;;;;;15.88;13.43;;;;;;;9.00;100.00;100784.06;6044529;23;20045;-69
2023/02/23 02:17:01;;;;;;;20.35;12.23;;;;;;;8.43;100.00;100686.28;6048053;23;20049;-70
2023/02/23 02:19:30;;;;;;;16.83;11.85;;;;;;;8.91;100.00;100779.22;6017134;23;20356;-70
2023/02/23 02:22:14;;;;;;;18.77;12.38;;;;;;;8.88;100.00;100772.38;6031424;23;20438;-70
2023/02/23 02:25:02;;;;;;;15.23;13.23;;;;;;;8.93;100.00;100808.81;6046811;23;20046;-70
2023/02/23 02:27:48;;;;;;;14.75;11.75;;;;;;;8.79;100.00;100763.13;6027359;23;20415;-70
2023/02/23 02:30:38;;;;;;;23.25;13.73;;;;;;;8.95;100.00;100786.88;6056973;23;20034;-69
2023/02/23 02:33:17;;;;;;;17.08;13.35;;;;;;;8.96;100.00;100787.72;6022823;23;20034;-69
2023/02/23 02:36:12;;;;;;;15.48;11.15;;;;;;;8.95;100.00;100818.28;6043757;23;20018;-70
2023/02/23 02:38:52;;;;;;;25.83;14.98;;;;;;;8.85;100.00;100787.34;6045842;23;20062;-69
2023/02/23 02:41:34;;;;;;;17.48;13.15;;;;;;;8.29;100.00;100718.22;6040729;23;20034;-70
2023/02/23 02:44:14;;;;;;;15.33;13.43;;;;;;;8.11;100.00;100697.13;6049008;23;20093;-70
2023/02/23 02:46:46;;;;;;;17.30;13.93;;;;;;;8.76;100.00;100780.75;6045542;23;20067;-69
2023/02/23 02:49:17;;;;;;;;;;;;;;;8.82;100.00;100784.84;6018435;23;20026;-69
2023/02/23 02:51:50;;;;;;;16.27;12.93;;;;;;;8.23;100.00;100693.16;6046975;23;20009;-69
2023/02/23 02:54:27;;;;;;;22.58;14.38;;;;;;;8.10;100.00;100671.09;6043644;23;20022;-69
2023/02/23 02:56:57;;;;;;;20.70;14.07;;;;;;;8.19;100.00;100691.59;6045260;23;20049;-70
2023/02/23 04:17:52;;;;;;;18.75;14.25;;;;;;;7.95;100.00;100683.88;6051454;23;20029;-72
2023/02/23 04:20:19;;;;;;;24.83;15.48;;;;;;;8.83;100.00;100807.50;6019041;23;20163;-72
2023/02/23 04:22:45;;;;;;;25.48;13.77;;;;;;;8.41;100.00;100743.00;6048654;23;20034;-72
2023/02/23 04:25:13;;;;;;;27.98;14.80;;;;;;;8.83;100.00;100810.97;6050575;23;20018;-71
2023/02/23 04:27:42;;;;;;;23.40;16.00;;;;;;;8.78;100.00;100782.38;6049070;23;20029;-71
2023/02/23 04:30:10;;;;;;;21.45;13.75;;;;;;;8.57;100.00;100751.91;6046464;23;20077;-71
2023/02/23 04:32:36;;;;;;;18.67;12.95;;;;;;;8.67;100.00;100765.44;6049722;23;20022;-70
2023/02/23 04:35:03;;;;;;;32.83;16.33;;;;;;;8.79;100.00;100775.38;6047566;23;20104;-72
2023/02/23 04:37:30;;;;;;;24.20;16.20;;;;;;;8.51;100.00;100739.94;6006328;23;20023;-72
2023/02/23 04:39:56;;;;;;;26.15;13.93;;;;;;;8.82;100.00;100784.84;6045207;23;20090;-71
2023/02/23 04:42:23;;;;;;;23.75;14.55;;;;;;;8.12;100.00;100666.66;6048733;23;20532;-72
2023/02/23 04:44:49;;;;;;;22.20;14.65;;;;;;;8.71;100.00;100775.69;6049923;23;20011;-69
2023/02/23 04:47:16;;;;;;;21.10;13.93;;;;;;;7.62;100.00;100586.88;6048175;23;20383;-71
2023/02/23 04:49:43;;;;;;;17.15;14.85;;;;;;;8.85;100.00;100810.91;6046039;23;20452;-71
2023/02/23 04:52:09;;;;;;;21.85;13.52;;;;;;;8.27;100.00;100704.34;6056179;23;20090;-71
2023/02/23 04:54:39;;;;;;;30.02;15.90;;;;;;;8.83;100.00;100804.88;6050079;23;20018;-71
2023/02/23 04:57:06;;;;;;;23.63;13.68;;;;;;;7.49;100.00;100577.81;6046416;23;20031;-71
2023/02/23 04:59:33;;;;;;;24.85;15.55;;;;;;;8.81;100.00;100796.25;6026349;23;20037;-72
2023/02/23 05:01:59;;;;;;;21.58;15.75;;;;;;;8.36;100.00;100725.72;6052217;23;20272;-71
2023/02/23 05:04:26;;;;;;;34.55;15.32;;;;;;;8.42;100.00;100757.78;5997691;23;20038;-71
2023/02/23 05:06:52;;;;;;;29.48;16.05;;;;;;;8.46;100.00;100757.59;6049989;23;20553;-71
2023/02/23 05:09:19;;;;;;;19.33;12.95;;;;;;;8.53;100.00;100777.34;6049368;23;20050;-71
2023/02/23 05:11:45;;;;;;;18.75;12.68;;;;;;;6.75;100.00;100505.13;6018092;23;20015;-71
2023/02/23 05:14:12;;;;;;;19.90;12.80;;;;;;;8.53;100.00;100813.13;6048043;23;20025;-71
2023/02/23 05:16:38;;;;;;;22.63;14.93;;;;;;;8.03;100.00;100720.13;6047807;23;20330;-71
2023/02/23 05:19:05;;;;;;;31.80;15.45;;;;;;;8.51;100.00;100814.94;6046943;23;20484;-71
2023/02/23 05:21:31;;;;;;;20.23;12.85;;;;;;;8.27;100.00;100752.25;6019606;23;20049;-71
2023/02/23 05:23:58;;;;;;;27.48;12.77;;;;;;;8.49;100.00;100782.78;6035821;23;20571;-72
2023/02/23 05:26:24;;;;;;;23.63;15.15;;;;;;;7.87;100.00;100699.00;6050048;23;20024;-72
2023/02/23 05:28:51;;;;;;;20.67;13.70;;;;;;;8.28;100.00;100794.94;6027725;23;20023;-71
2023/02/23 05:31:17;;;;;;;17.77;15.40;;;;;;;8.70;100.00;100830.72;6026563;23;20015;-71
2023/02/23 05:33:44;;;;;;;21.80;15.07;;;;;;;8.53;100.00;100828.81;6047072;23;20028;-71
2023/02/23 05:36:15;;;;;;;29.00;18.40;;;;;;;8.57;100.00;100827.75;6048293;23;20037;-71
2023/02/23 05:38:42;;;;;;;27.27;15.55;;;;;;;8.26;100.00;100781.94;6046977;23;20344;-71
2023/02/23 05:41:10;;;;;;;27.15;12.50;;;;;;;8.17;100.00;100762.22;6043674;23;20085;-72
2023/02/23 05:43:37;;;;;;;20.38;13.25;;;;;;;8.42;100.00;100823.16;6020518;23;20031;-71
2023/02/23 05:46:24;;;;;;;32.28;14.43;;;;;;;8.56;100.00;100836.53;6023378;23;20045;-72
2023/02/23 05:48:57;;;;;;;17.67;13.32;;;;;;;8.50;100.00;100815.84;6016012;23;20062;-71
2023/02/23 05:51:24;;;;;;;;;;;;;;;8.58;100.00;100839.94;6045810;23;20412;-71
2023/02/23 05:53:50;;;;;;;17.58;11.90;;;;;;;8.57;100.00;100840.84;6047812;23;19932;-71
2023/02/23 05:56:19;;;;;;;21.83;13.82;;;;;;;8.58;100.00;100829.47;6017405;23;20176;-72
2023/02/23 05:58:51;;;;;;;26.20;15.48;;;;;;;8.65;100.00;100840.53;6047426;23;20014;-71
2023/02/23 06:01:18;;;;;;;26.80;16.02;;;;;;;8.44;100.00;100805.63;6023301;23;20085;-71
2023/02/23 06:03:46;;;;;;;17.55;13.57;;;;;;;8.71;100.00;100842.88;6047552;23;20034;-71
2023/02/23 06:06:13;;;;;;;20.17;13.65;;;;;;;8.75;100.00;100840.06;6027914;23;20015;-71
2023/02/23 06:08:40;;;;;;;29.67;15.77;;;;;;;8.31;100.00;100782.59;6020475;23;20027;-72
2023/02/23 06:11:06;;;;;;;25.05;14.73;;;;;;;8.17;100.00;100777.91;6049640;23;20022;-71
2023/02/23 06:13:33;;;;;;;26.40;13.95;;;;;;;8.15;100.00;100760.59;6022374;23;20046;-71
2023/02/23 06:15:59;;;;;;;28.52;14.40;;;;;;;8.44;100.00;100816.97;6051839;23;20028;-71
2023/02/23 06:18:26;;;;;;;24.95;13.88;;;;;;;8.64;100.00;100847.53;6038544;23;20037;-71
2023/02/23 06:20:53;;;;;;;32.17;13.80;;;;;;;8.72;100.00;100852.41;6063619;23;20018;-71
2023/02/23 06:23:20;;;;;;;18.95;15.98;;;;;;;8.74;100.00;100846.22;6046264;23;20014;-71
2023/02/23 06:25:46;;;;;;;23.48;14.40;;;;;;;8.30;100.00;100807.06;6046423;23;20034;-71
2023/02/23 06:28:14;;;;;;;22.23;14.75;;;;;;;8.44;100.00;100831.78;6049532;23;20023;-71
2023/02/23 06:30:40;;;;;;;29.02;15.55;;;;;;;8.06;100.00;100821.09;6027310;23;20091;-72
2023/02/23 06:33:07;;;;;;;19.42;14.13;;;;;;;7.81;100.00;100801.16;6044808;23;20072;-70
2023/02/23 06:35:34;;;;;;;23.85;14.75;;;;;;;8.24;100.00;100859.59;6045238;23;20052;-70
2023/02/23 06:38:01;;;;;;;24.30;13.40;;;;;;;7.38;100.00;100691.38;6047470;23;20034;-70
2023/02/23 06:40:28;;;;;;;19.25;12.95;;;;;;;7.63;100.00;100786.19;6046189;23;20589;-71
2023/02/23 06:42:54;;;;;;;27.35;15.68;;;;;;;8.13;100.00;100857.38;6018246;23;20019;-71
2023/02/23 06:45:21;;;;;;;36.30;15.35;;;;;;;8.33;100.00;100868.81;6046967;23;20907;-71
2023/02/23 06:47:47;;;;;;;25.67;17.08;;;;;;;8.42;100.00;100872.84;6025277;23;20050;-71
2023/02/23 06:50:14;;;;;;;24.98;15.20;;;;;;;8.55;100.00;100872.28;6016664;23;20026;-71
2023/02/23 06:52:41;;;;;;;16.67;13.07;;;;;;;8.20;100.00;100810.97;6045356;23;20026;-71
2023/02/23 06:55:08;;;;;;;27.35;16.63;;;;;;;8.42;100.00;100891.16;6024927;23;20205;-71
2023/02/23 06:57:34;;;;;;;20.25;17.55;;;;;;;8.21;100.00;100883.22;6049911;23;20104;-71
2023/02/23 07:00:01;;;;;;;23.40;14.77;;;;;;;8.30;100.00;100884.63;6048614;23;20014;-71
2023/02/23 07:02:28;;;;;;;26.45;14.88;;;;;;;8.28;100.00;100884.69;6024225;23;20042;-70
2023/02/23 07:04:55;;;;;;;29.85;16.05;;;;;;;8.32;100.00;100896.75;6048124;23;20018;-71
2023/02/23 07:07:21;;;;;;;27.60;17.42;;;;;;;8.11;100.00;100846.13;6044108;23;20026;-71
2023/02/23 07:09:48;;;;;;;20.05;13.23;;;;;;;7.78;100.00;100786.47;6045918;23;20591;-71
2023/02/23 07:12:14;;;;;;;25.65;14.82;;;;;;;7.83;100.00;100814.16;6035505;23;20019;-71
2023/02/23 07:14:40;;;;;;;31.02;16.75;;;;;;;8.31;100.00;100899.41;6051340;23;20018;-71
2023/02/23 07:17:07;;;;;;;21.40;14.60;;;;;;;7.89;100.00;100827.84;6047414;23;20070;-71
2023/02/23 07:19:33;;;;;;;18.95;13.07;;;;;;;8.61;100.00;100905.19;6048138;23;20029;-71
2023/02/23 07:22:00;;;;;;;23.77;15.30;;;;;;;8.68;100.00;100911.03;6047772;23;20313;-72
2023/02/23 07:24:27;;;;;;;23.13;13.45;;;;;;;8.69;100.00;100908.34;6042446;23;20034;-71
2023/02/23 07:26:56;;;;;;;25.40;13.35;;;;;;;8.71;100.00;100914.38;6047316;23;20585;-70
2023/02/23 07:29:23;;;;;;;18.13;13.15;;;;;;;8.27;100.00;100845.53;6051161;23;20063;-71
2023/02/23 07:31:50;;;;;;;21.30;12.57;;;;;;;8.61;100.00;100920.06;6047841;23;20430;-70
2023/02/23 07:34:16;;;;;;;28.42;14.80;;;;;;;8.14;100.00;100832.97;6050729;23;20092;-71
2023/02/23 07:36:43;;;;;;;18.65;13.73;;;;;;;8.57;100.00;100911.47;6023998;23;20042;-71
2023/02/23 07:39:09;;;;;;;17.50;13.10;;;;;;;8.72;100.00;100923.94;6052936;23;20568;-72
2023/02/23 07:41:35;;;;;;;22.85;14.80;;;;;;;8.13;100.00;100853.94;6050999;23;20684;-71
2023/02/23 07:44:02;;;;;;;18.50;13.65;;;;;;;8.16;100.00;100846.81;6022922;23;20019;-71
2023/02/23 07:46:28;;;;;;;23.80;13.77;;;;;;;8.36;100.00;100884.41;6052923;23;20034;-71
2023/02/23 07:48:55;;;;;;;25.05;13.68;;;;;;;7.92;100.00;100795.53;6053127;23;19998;-71
2023/02/23 07:51:21;;;;;;;29.00;13.00;;;;;;;7.86;100.00;100806.19;6054201;23;20441;-71
2023/02/23 07:53:48;;;;;;;21.08;12.80;;;;;;;8.35;100.00;100882.69;6048917;23;20085;-70
2023/02/23 07:56:14;;;;;;;15.50;12.05;;;;;;;7.78;100.00;100788.22;6053860;23;20030;-71
2023/02/23 07:58:43;;;;;;;18.85;13.27;;;;;;;8.64;100.00;100926.03;6049762;23;20072;-71
2023/02/23 08:01:11;;;;;;;23.13;14.95;;;;;;;8.51;100.00;100937.88;6051476;23;20202;-71
2023/02/23 08:03:38;;;;;;;22.52;13.25;;;;;;;7.57;100.00;100784.66;6018354;23;20145;-70
2023/02/23 08:06:05;;;;;;;21.42;13.40;;;;;;;7.32;100.00;100756.03;6053062;23;20022;-71
2023/02/23 08:08:32;;;;;;;23.52;13.88;;;;;;;7.86;100.00;100838.41;6046440;23;20034;-71
2023/02/23 08:11:01;;;;;;;16.45;13.45;;;;;;;8.48;100.00;100937.97;6050478;23;20030;-71
2023/02/23 08:13:28;;;;;;;16.52;12.63;;;;;;;8.54;100.00;100937.78;6050697;23;20026;-71
2023/02/23 08:15:55;;;;;;;16.02;13.25;;;;;;;8.63;100.00;100953.09;5987605;23;20038;-71
2023/02/23 08:18:22;;;;;;;20.83;15.45;;;;;;;8.75;100.00;100976.13;6027639;23;20026;-72
2023/02/23 08:20:49;;;;;;;27.83;15.18;;;;;;;6.97;100.00;100661.66;6042964;23;20026;-70
2023/02/23 08:23:18;;;;;;;15.95;12.38;;;;;;;7.98;100.00;100835.31;6047628;23;20034;-71
2023/02/23 08:25:44;;;;;;;21.15;12.52;;;;;;;8.14;100.00;100871.31;6051965;23;20160;-71
2023/02/23 08:28:11;;;;;;;15.80;13.48;;;;;;;8.73;100.00;100961.41;6048317;23;20156;-71
2023/02/23 08:30:39;;;;;;;17.05;13.52;;;;;;;8.77;100.00;100955.16;6045948;23;20023;-71
2023/02/23 08:33:06;;;;;;;16.63;12.15;;;;;;;8.70;100.00;100938.84;6050711;23;20052;-71
2023/02/23 08:35:33;;;;;;;14.65;13.10;;;;;;;8.59;100.00;100893.94;6015671;23;20430;-71
2023/02/23 08:37:59;;;;;;;14.65;12.48;;;;;;;9.06;100.00;100950.47;6050852;23;20086;-71
2023/02/23 08:40:26;;;;;;;15.93;13.73;;;;;;;8.22;100.00;100858.81;6020719;23;20022;-71
2023/02/23 08:42:52;;;;;;;12.32;11.13;;;;;;;8.74;100.00;100960.50;6051517;23;21240;-71
2023/02/23 08:45:19;;;;;;;14.43;12.77;;;;;;;8.37;100.00;100909.63;6052250;23;20167;-71
2023/02/23 08:47:45;;;;;;;20.38;12.25;;;;;;;8.31;100.00;100920.31;6050529;23;20026;-70
2023/02/23 08:50:13;;;;;;;19.13;12.15;;;;;;;8.66;100.00;100984.38;6050743;23;20075;-71
2023/02/23 08:52:39;;;;;;;18.92;12.82;;;;;;;8.71;100.00;100981.56;6022730;23;20180;-71
2023/02/23 08:55:06;;;;;;;14.52;10.55;;;;;;;8.32;100.00;100928.13;6046783;23;20643;-71
2023/02/23 08:57:34;;;;;;;22.35;14.30;;;;;;;8.63;100.00;100975.78;6026746;23;20316;-71
2023/02/23 09:00:02;;;;;;;18.48;10.93;;;;;;;8.16;100.00;100922.63;6049482;23;20032;-71
2023/02/23 09:02:28;;;;;;;15.60;11.63;;;;;;;8.68;100.00;100982.53;6022941;23;20094;-71
2023/02/23 09:04:54;;;;;;;17.75;10.75;;;;;;;8.09;100.00;100879.31;6050825;23;20089;-71
2023/02/23 09:07:22;;;;;;;22.33;10.55;;;;;;;8.71;100.00;100987.63;6049456;23;20038;-71
2023/02/23 09:09:57;;;;;;;19.67;12.65;;;;;;;8.62;100.00;100972.31;6049816;23;20426;-71
2023/02/23 09:12:24;;;;;;;21.65;9.88;;;;;;;8.85;100.00;100997.56;6053460;23;20089;-71
2023/02/23 09:14:52;;;;;;;14.38;11.55;;;;;;;8.85;100.00;100989.72;6050920;23;20053;-71
2023/02/23 09:17:21;;;;;;;16.75;12.27;;;;;;;9.11;100.00;100993.88;6042261;23;20061;-71
2023/02/23 09:19:49;;;;;;;20.95;12.98;;;;;;;9.11;100.00;101004.34;6045091;23;20035;-71
2023/02/23 09:22:17;;;;;;;15.95;11.85;;;;;;;8.74;100.00;100931.72;6025789;23;20015;-71
2023/02/23 09:24:43;;;;;;;28.13;16.33;;;;;;;8.91;100.00;100917.94;6051692;23;20186;-70
2023/02/23 09:27:13;;;;;;;22.38;13.57;;;;;;;9.24;100.00;100981.16;6047487;23;20061;-71
2023/02/23 09:29:43;;;;;;;20.45;12.57;;;;;;;8.93;100.00;100913.50;6046760;23;20049;-70
2023/02/23 09:32:11;;;;;;;19.33;12.68;;;;;;;9.66;100.00;100987.22;6020376;23;20026;-71
2023/02/23 09:34:37;;;;;;;18.80;11.48;;;;;;;9.52;100.00;100987.78;6047687;23;20037;-71
2023/02/23 09:37:05;;;;;;;21.88;13.30;;;;;;;8.98;100.00;100894.06;6050947;23;20041;-70
2023/02/23 09:39:31;;;;;;;18.85;13.55;;;;;;;9.02;100.00;100892.19;6027897;23;20023;-71
2023/02/23 09:42:28;;;;;;;24.92;15.82;;;;;;;9.52;100.00;100996.53;6045991;23;20039;-71
2023/02/23 09:45:22;;;;;;;17.45;11.57;;;;;;;9.28;100.00;101000.16;6014674;23;20466;-71
2023/02/23 09:48:08;;;;;;;15.70;11.02;;;;;;;9.32;100.00;101010.47;6030112;23;20090;-71
2023/02/23 09:50:37;;;;;;;25.00;13.75;;;;;;;8.81;100.00;100929.72;6045692;23;20834;-72
2023/02/23 09:53:19;;;;;;;22.42;14.23;;;;;;;9.03;100.00;101009.06;5992583;23;20072;-70
2023/02/23 09:55:47;;;;;;;25.23;13.48;;;;;;;8.50;100.00;100954.47;6039396;23;20027;-71
2023/02/23 09:58:22;;;;;;;20.55;12.55;;;;;;;9.04;100.00;101028.22;6046498;23;20038;-71
2023/02/23 10:00:57;;;;;;;21.63;12.85;;;;;;;8.78;100.00;101030.13;6020569;23;20081;-71
2023/02/23 10:03:36;;;;;;;31.85;16.17;;;;;;;8.61;100.00;100985.47;6049473;23;20036;-71
2023/02/23 10:06:07;;;;;;;25.40;13.88;;;;;;;8.27;100.00;100948.34;5998680;23;20141;-71
2023/02/23 10:08:37;;;;;;;18.90;12.05;;;;;;;8.79;100.00;101040.53;6045783;23;20074;-71
2023/02/23 10:11:24;;;;;;;21.48;12.23;;;;;;;8.87;100.00;101047.22;6023424;23;20493;-72
2023/02/23 10:13:59;;;;;;;23.55;13.05;;;;;;;9.08;100.00;101041.16;6176739;22;20650;-71
2023/02/23 10:17:21;;;;;;;34.47;15.57;;;;;;;8.84;100.00;100997.63;6101491;23;20085;-72
2023/02/23 10:19:57;;;;;;;21.00;11.88;;;;;;;8.71;100.00;100987.63;5986356;23;20036;-71
2023/02/23 10:22:25;;;;;;;29.95;12.63;;;;;;;8.38;100.00;100947.97;6011114;23;20124;-71
2023/02/23 10:24:59;;;;;;;32.97;13.27;;;;;;;8.38;100.00;100963.66;6059043;23;20435;-71
2023/02/23 10:27:36;;;;;;;18.67;11.40;;;;;;;9.02;100.00;101044.00;6105473;23;20037;-71
2023/02/23 10:30:16;;;;;;;23.63;11.88;;;;;;;8.10;100.00;100940.31;6102285;23;20022;-71
2023/02/23 10:32:51;;;;;;;16.55;11.05;;;;;;;8.47;100.00;100959.84;6120776;23;20041;-72
2023/02/23 10:35:20;;;;;;;26.40;13.85;;;;;;;7.75;100.00;100874.53;6106384;23;20049;-72
2023/02/23 10:37:49;;;;;;;33.63;15.63;;;;;;;8.89;100.00;101037.56;6106807;23;20367;-71
2023/02/23 10:40:20;;;;;;;20.05;11.82;;;;;;;8.95;100.00;101059.09;6132416;23;20052;-72
2023/02/23 10:42:51;;;;;;;17.77;11.85;;;;;;;8.56;100.00;101040.59;6104131;23;20140;-71
2023/02/23 10:45:23;;;;;;;18.77;11.07;;;;;;;8.38;100.00;101002.88;6130661;23;20091;-72
2023/02/23 10:48:00;;;;;;;21.77;12.07;;;;;;;8.82;100.00;101068.34;6093384;23;20311;-71
2023/02/23 10:50:29;;;;;;;22.80;12.88;;;;;;;8.65;100.00;101061.13;6103313;23;20456;-71
2023/02/23 10:53:02;;;;;;;25.25;11.15;;;;;;;8.34;100.00;101043.97;6103251;23;20590;-71
2023/02/23 10:55:31;;;;;;;29.67;15.18;;;;;;;8.57;100.00;101071.88;6102276;23;20021;-71
2023/02/23 10:58:15;;;;;;;26.48;15.13;;;;;;;8.63;100.00;101062.13;6125941;23;20036;-73
2023/02/23 11:00:51;;;;;;;28.83;13.85;;;;;;;8.71;100.00;101078.38;6079274;23;20030;-72
2023/02/23 11:03:26;;;;;;;28.52;13.02;;;;;;;8.42;100.00;101046.34;6129721;23;20029;-71
2023/02/23 11:05:53;;;;;;;25.92;11.57;;;;;;;8.45;100.00;101066.28;6085024;23;20021;-72
2023/02/23 11:08:31;;;;;;;21.98;12.50;;;;;;;8.41;100.00;101064.66;6104901;23;20021;-71
2023/02/23 11:11:03;;;;;;;24.05;13.95;;;;;;;8.58;100.00;101064.91;6091967;23;20737;-73
2023/02/23 11:13:49;;;;;;;33.60;14.55;;;;;;;8.16;100.00;101013.28;6133498;23;20044;-71
2023/02/23 11:16:24;;;;;;;30.30;13.25;;;;;;;8.18;100.00;101004.47;6100749;23;20025;-72
2023/02/23 11:19:02;;;;;;;17.35;12.23;;;;;;;8.72;100.00;101069.59;6076407;23;20036;-71
2023/02/23 11:21:34;;;;;;;19.73;13.05;;;;;;;8.74;100.00;101066.03;6103635;23;20607;-71
2023/02/23 11:24:16;;;;;;;17.17;11.88;;;;;;;8.76;100.00;101074.69;6089243;23;20100;-71
2023/02/23 11:26:46;;;;;;;22.45;12.90;;;;;;;8.43;100.00;100982.63;6108692;23;20088;-71
2023/02/23 11:29:38;;;;;;;36.38;16.23;;;;;;;8.22;100.00;100958.16;6112059;23;20112;-72
2023/02/23 11:32:09;;;;;;;19.63;12.57;;;;;;;8.49;100.00;101039.94;6083429;23;20097;-71
2023/02/23 11:34:39;;;;;;;28.42;11.70;;;;;;;8.45;100.00;101016.59;6078971;23;20924;-72
2023/02/23 11:37:20;;;;;;;22.38;13.07;;;;;;;8.85;100.00;101052.53;6113917;23;20036;-71
2023/02/23 11:39:56;;;;;;;25.60;13.30;;;;;;;8.79;100.00;101040.53;6091931;23;20021;-71
2023/02/23 11:42:32;;;;;;;26.83;11.73;;;;;;;8.72;100.00;100999.81;6108978;23;20021;-72
2023/02/23 11:45:16;;;;;;;24.73;12.80;;;;;;;8.73;100.00;101035.53;6068958;23;20093;-72
2023/02/23 11:47:51;;;;;;;27.27;12.32;;;;;;;8.89;100.00;101050.63;6078830;23;20032;-74
2023/02/23 11:50:34;;;;;;;17.35;11.70;;;;;;;8.52;100.00;100997.13;6111439;23;20486;-72
2023/02/23 11:53:03;;;;;;;20.52;13.05;;;;;;;8.70;100.00;101045.25;6108030;23;20674;-71
2023/02/23 11:55:31;;;;;;;25.35;11.68;;;;;;;8.81;100.00;101044.84;6082896;23;20037;-72
2023/02/23 11:58:24;;;;;;;19.77;10.95;;;;;;;8.18;100.00;100953.94;6079250;23;20071;-71
2023/02/23 12:00:59;;;;;;;19.77;13.03;;;;;;;8.72;100.00;101049.53;6057571;23;20078;-71
2023/02/23 12:03:31;;;;;;;25.63;11.02;;;;;;;8.67;100.00;101045.41;6104751;23;20651;-71
2023/02/23 12:05:58;;;;;;;21.10;12.63;;;;;;;8.36;100.00;100963.69;6049260;23;20382;-72
2023/02/23 12:08:52;;;;;;;30.33;13.25;;;;;;;8.49;100.00;100971.94;6082871;23;20048;-71
2023/02/23 12:11:24;;;;;;;27.77;12.35;;;;;;;9.08;100.00;101051.63;6078816;23;20256;-71
2023/02/23 12:13:59;;;;;;;17.90;10.50;;;;;;;8.99;100.00;101033.66;6107831;23;20021;-71
2023/02/23 12:16:49;;;;;;;14.73;10.55;;;;;;;8.80;100.00;101038.78;6046330;23;20033;-73
2023/02/23 12:19:45;;;;;;;25.60;12.55;;;;;;;8.91;100.00;101043.56;6078474;23;20017;-72
2023/02/23 12:22:19;;;;;;;26.02;10.13;;;;;;;8.64;100.00;101020.22;6060189;23;20108;-71
2023/02/23 12:25:00;;;;;;;20.55;11.43;;;;;;;7.40;100.00;100832.31;6107231;23;20017;-71
2023/02/23 12:28:09;;;;;;;18.75;11.63;;;;;;;8.37;100.00;101036.00;6063662;23;20351;-71
2023/02/23 12:30:57;;;;;;;20.92;10.35;;;;;;;7.89;100.00;100979.38;6083175;23;20103;-73
2023/02/23 12:33:32;;;;;;;26.35;11.88;;;;;;;7.66;100.00;100942.78;6107136;23;20068;-73
2023/02/23 12:36:10;;;;;;;16.73;9.88;;;;;;;8.13;100.00;101052.59;6091512;23;20268;-72
2023/02/23 12:38:37;;;;;;;17.00;10.70;;;;;;;7.97;100.00;101057.53;6106574;23;20415;-71
2023/02/23 12:41:11;;;;;;;14.23;10.13;;;;;;;7.97;100.00;101057.53;6076461;23;20335;-71
2023/02/23 12:43:50;;;;;;;31.60;11.95;;;;;;;7.78;100.00;101036.44;6079105;23;20179;-72
2023/02/23 12:46:28;;;;;;;20.27;10.55;;;;;;;7.59;100.00;101003.09;6077557;23;20222;-71